Terminal Aerodrome Forecast
Issued by NWS

Home | Current Version | Previous Version | Text Only | Print | Product List | Glossary On
Versions: 1 2 3 4 5 6 7 8 9 10 11 12 13 14 15 16 17 18 19
000
FTUS41 KBOX 231316 AAA
TAFBED
TAF AMD
KBED 231316Z 2313/2412 36012G22KT 3SM RA BR SCT007 OVC015
      WS020/04040KT
     FM231500 02013G22KT 5SM -SHRA BR BKN008 OVC020
     FM240100 36012G20KT 6SM BR OVC008
     FM241000 33009KT 6SM BR OVC010=

USA.gov is the U.S. government's official web portal to all federal, state and local government web resources and services.